Time;durP1;ratioP1;P1;durP2;ratioP2;P2;SDS_P1;SDS_P2;PMS_P1;PMS_P2;Temp;Humidity;BMP_temperature;BMP_pressure;BME280_temperature;BME280_humidity;BME280_pressure;Samples;Min_cycle;Max_cycle;Signal;HPM_P1;HPM_P2
2021/04/07 00:01:24;;;;;;;3.33;1.93;;;1.40;99.90;;;;;;5072337;28;20296;-56
2021/04/07 00:03:51;;;;;;;3.60;2.60;;;1.30;99.90;;;;;;5072780;28;20207;-57
2021/04/07 00:06:18;;;;;;;5.20;2.40;;;1.50;99.90;;;;;;5072893;28;20204;-53
2021/04/07 00:08:49;;;;;;;2.90;2.60;;;1.50;99.90;;;;;;5073428;28;20283;-55
2021/04/07 00:11:17;;;;;;;4.90;3.70;;;1.50;99.90;;;;;;5072928;28;20189;-53
2021/04/07 00:13:44;;;;;;;6.03;3.50;;;1.50;99.90;;;;;;5072373;28;20210;-55
2021/04/07 00:16:11;;;;;;;2.60;2.40;;;1.40;99.90;;;;;;5072101;28;20680;-55
2021/04/07 00:18:38;;;;;;;3.70;2.63;;;1.40;99.90;;;;;;5072497;28;20221;-56
2021/04/07 00:21:06;;;;;;;3.97;3.60;;;1.30;99.90;;;;;;5072173;28;20204;-56
2021/04/07 00:23:34;;;;;;;2.50;2.30;;;1.40;99.90;;;;;;5072690;28;20204;-57
2021/04/07 00:26:01;;;;;;;2.80;2.53;;;1.40;99.90;;;;;;5072109;28;20295;-57
2021/04/07 00:28:28;;;;;;;3.23;2.73;;;1.50;99.90;;;;;;5072622;28;20188;-55
2021/04/07 00:30:55;;;;;;;3.77;2.47;;;1.50;99.90;;;;;;5072322;28;20270;-53
2021/04/07 00:33:22;;;;;;;3.50;2.40;;;1.50;99.90;;;;;;5072583;28;20287;-52
2021/04/07 00:35:49;;;;;;;4.60;2.90;;;1.50;99.90;;;;;;5072615;28;20314;-55
2021/04/07 00:38:15;;;;;;;3.57;2.13;;;1.60;99.90;;;;;;5072244;28;20691;-52
2021/04/07 00:40:43;;;;;;;3.53;2.23;;;1.50;99.90;;;;;;5072214;28;20207;-56
2021/04/07 00:43:11;;;;;;;5.37;4.00;;;1.50;99.90;;;;;;5072347;28;20288;-56
2021/04/07 00:45:39;;;;;;;2.67;2.13;;;1.50;99.90;;;;;;5072038;28;20310;-56
2021/04/07 00:48:06;;;;;;;3.10;2.20;;;1.50;99.90;;;;;;5072335;28;20193;-57
2021/04/07 00:50:33;;;;;;;3.03;1.80;;;1.50;99.90;;;;;;5072342;28;20207;-56
2021/04/07 00:53:00;;;;;;;2.33;2.13;;;1.60;99.90;;;;;;5075800;28;20237;-56
2021/04/07 00:55:29;;;;;;;3.67;2.17;;;1.60;99.90;;;;;;5075871;28;20258;-57
2021/04/07 00:57:57;;;;;;;4.33;3.00;;;1.60;99.90;;;;;;5075700;28;20310;-57
2021/04/07 01:00:25;;;;;;;2.80;2.50;;;1.60;99.90;;;;;;5075783;28;20310;-54
2021/04/07 01:02:53;;;;;;;3.17;2.23;;;1.60;99.90;;;;;;5076190;28;20296;-55
2021/04/07 01:05:21;;;;;;;2.50;2.30;;;1.60;99.90;;;;;;5075649;28;20679;-57
2021/04/07 01:07:48;;;;;;;2.50;2.27;;;1.60;99.90;;;;;;5075814;28;20225;-62
2021/04/07 01:10:16;;;;;;;3.17;2.30;;;1.60;99.90;;;;;;5075935;28;20290;-62
2021/04/07 01:12:43;;;;;;;3.30;2.37;;;1.70;99.90;;;;;;5075873;28;20216;-62
2021/04/07 01:15:13;;;;;;;4.67;2.40;;;1.60;99.90;;;;;;5074956;28;20240;-62
2021/04/07 01:17:41;;;;;;;4.17;2.30;;;1.70;99.90;;;;;;5075155;28;20232;-62
2021/04/07 01:20:10;;;;;;;3.43;2.20;;;1.70;99.90;;;;;;5075787;28;20201;-62
2021/04/07 01:22:39;;;;;;;2.40;2.20;;;1.60;99.90;;;;;;5075350;28;20239;-61
2021/04/07 01:25:09;;;;;;;2.37;2.17;;;1.70;99.90;;;;;;5075145;28;20655;-63
2021/04/07 01:27:36;;;;;;;2.87;2.40;;;1.60;99.90;;;;;;5075214;28;20419;-61
2021/04/07 01:30:05;;;;;;;3.50;2.70;;;1.60;99.90;;;;;;5075056;28;20247;-63
2021/04/07 01:32:32;;;;;;;3.43;2.43;;;1.60;99.90;;;;;;5074942;28;20719;-63
2021/04/07 01:34:59;;;;;;;2.50;2.10;;;1.60;99.90;;;;;;5075328;28;20212;-62
2021/04/07 01:37:26;;;;;;;4.30;2.60;;;1.70;99.90;;;;;;5080301;28;20319;-62
2021/04/07 01:39:53;;;;;;;4.47;2.50;;;1.70;99.90;;;;;;5081432;28;20312;-62
2021/04/07 01:42:22;;;;;;;3.30;2.30;;;1.60;99.90;;;;;;5075227;28;20204;-63
2021/04/07 01:44:49;;;;;;;3.07;2.40;;;1.60;99.90;;;;;;5074829;28;20211;-62
2021/04/07 01:47:16;;;;;;;3.50;2.50;;;1.50;99.90;;;;;;5075209;28;20287;-62
2021/04/07 01:49:44;;;;;;;3.67;2.90;;;1.60;99.90;;;;;;5075168;28;20254;-63
2021/04/07 01:52:11;;;;;;;3.80;2.10;;;1.60;99.90;;;;;;5074963;28;20294;-61
2021/04/07 01:54:37;;;;;;;4.37;2.57;;;1.60;99.90;;;;;;5074731;28;20644;-62
2021/04/07 01:57:08;;;;;;;3.67;2.30;;;1.70;99.90;;;;;;5074984;28;20235;-63
2021/04/07 01:59:36;;;;;;;3.30;2.57;;;1.70;99.90;;;;;;5074541;28;20194;-63
2021/04/07 02:02:02;;;;;;;2.80;2.50;;;1.70;99.90;;;;;;5074492;28;20573;-62
2021/04/07 02:04:30;;;;;;;5.30;2.90;;;1.70;99.90;;;;;;5074541;28;20236;-63
2021/04/07 02:06:57;;;;;;;2.73;2.40;;;1.70;99.90;;;;;;5074793;28;20224;-62
2021/04/07 02:09:25;;;;;;;2.93;2.13;;;1.80;99.90;;;;;;5074733;28;20291;-62
2021/04/07 02:11:53;;;;;;;3.00;2.77;;;1.80;99.90;;;;;;5074553;28;20197;-63
2021/04/07 02:14:24;;;;;;;3.40;2.47;;;1.80;99.90;;;;;;5074117;28;20301;-62
2021/04/07 02:16:52;;;;;;;3.13;2.37;;;1.80;99.90;;;;;;5074463;28;20188;-61
2021/04/07 02:19:20;;;;;;;4.67;2.60;;;1.60;99.90;;;;;;5074508;28;20233;-63
2021/04/07 02:21:53;;;;;;;2.80;2.50;;;1.70;99.90;;;;;;5074483;28;20198;-62
2021/04/07 02:24:19;;;;;;;3.23;2.50;;;1.70;99.90;;;;;;5074180;28;20288;-62
2021/04/07 02:26:46;;;;;;;3.20;2.90;;;1.80;99.90;;;;;;5073951;28;20232;-64
2021/04/07 02:29:13;;;;;;;3.10;2.80;;;1.80;99.90;;;;;;5073351;28;20200;-63
2021/04/07 02:31:40;;;;;;;3.27;2.60;;;1.80;99.90;;;;;;5073621;28;20690;-63
2021/04/07 02:34:08;;;;;;;4.40;3.03;;;1.70;99.90;;;;;;5074225;28;20229;-64
2021/04/07 02:36:35;;;;;;;3.83;2.97;;;1.80;99.90;;;;;;5074314;28;20292;-63
2021/04/07 02:39:02;;;;;;;3.40;2.97;;;1.70;99.90;;;;;;5079200;28;20337;-62
2021/04/07 02:41:29;;;;;;;5.83;3.00;;;1.70;99.90;;;;;;5081017;28;20269;-62
2021/04/07 02:43:56;;;;;;;3.30;3.00;;;1.70;99.90;;;;;;5075999;28;20307;-62
2021/04/07 02:46:23;;;;;;;4.67;2.90;;;1.70;99.90;;;;;;5074053;28;20290;-62
2021/04/07 02:48:50;;;;;;;3.50;3.20;;;1.70;99.90;;;;;;5073833;28;20197;-62
2021/04/07 02:51:17;;;;;;;3.87;3.17;;;1.60;99.90;;;;;;5073922;28;20309;-61
2021/04/07 02:53:44;;;;;;;3.80;2.77;;;1.70;99.90;;;;;;5073572;28;20727;-61
2021/04/07 02:56:11;;;;;;;3.43;3.10;;;1.70;99.90;;;;;;5073690;28;20211;-62
2021/04/07 02:58:38;;;;;;;3.97;3.27;;;1.70;99.90;;;;;;5073009;28;20243;-63
2021/04/07 03:01:06;;;;;;;5.43;3.30;;;1.70;99.90;;;;;;5073391;28;20205;-63
2021/04/07 03:03:33;;;;;;;3.77;3.00;;;1.60;99.90;;;;;;5073494;28;20284;-63
2021/04/07 03:06:00;;;;;;;3.90;3.40;;;1.60;99.90;;;;;;5073350;28;20292;-63
2021/04/07 03:08:27;;;;;;;3.40;3.10;;;1.70;99.90;;;;;;5073470;28;20291;-61
2021/04/07 03:10:54;;;;;;;3.43;3.13;;;1.60;99.90;;;;;;5073602;28;20291;-62
2021/04/07 03:13:21;;;;;;;4.00;3.10;;;1.60;99.90;;;;;;5072491;28;20298;-62
2021/04/07 03:15:48;;;;;;;4.73;3.43;;;1.60;99.90;;;;;;5073000;28;20200;-62
2021/04/07 03:18:15;;;;;;;3.77;3.30;;;1.60;99.90;;;;;;5073096;28;20647;-62
2021/04/07 03:20:42;;;;;;;4.23;3.33;;;1.70;99.90;;;;;;5073411;28;20210;-62
2021/04/07 03:23:09;;;;;;;3.60;3.13;;;1.70;99.90;;;;;;5073435;28;20274;-63
2021/04/07 03:25:36;;;;;;;4.60;3.43;;;1.60;99.90;;;;;;5073294;28;20239;-62
2021/04/07 03:28:04;;;;;;;6.03;3.73;;;1.60;99.90;;;;;;5072675;28;20319;-61
2021/04/07 03:30:48;;;;;;;4.27;3.77;;;1.60;99.90;;;;;;5072744;28;20864;-63
2021/04/07 03:33:15;;;;;;;6.87;3.60;;;1.60;99.90;;;;;;5073018;28;20180;-63
2021/04/07 03:35:42;;;;;;;4.77;3.70;;;1.60;99.90;;;;;;5073044;28;20205;-62
2021/04/07 03:38:09;;;;;;;3.90;3.50;;;1.50;99.90;;;;;;5072679;28;20701;-63
2021/04/07 03:40:37;;;;;;;4.73;3.60;;;1.60;99.90;;;;;;5072773;28;20242;-62
2021/04/07 03:43:05;;;;;;;3.90;3.50;;;1.60;99.90;;;;;;5072729;28;20242;-63
2021/04/07 03:45:32;;;;;;;5.33;3.93;;;1.50;99.90;;;;;;5072715;28;20690;-63
2021/04/07 03:47:59;;;;;;;4.77;3.83;;;1.40;99.90;;;;;;5072677;28;20196;-62
2021/04/07 03:50:27;;;;;;;4.27;3.43;;;1.40;99.90;;;;;;5072679;28;20235;-62
2021/04/07 03:52:54;;;;;;;6.20;3.87;;;1.50;99.90;;;;;;5072911;28;20212;-62
2021/04/07 03:55:21;;;;;;;4.73;3.63;;;1.40;99.90;;;;;;5072964;28;20244;-62
2021/04/07 03:57:48;;;;;;;4.17;3.77;;;1.40;99.90;;;;;;5072495;28;20219;-62
2021/04/07 04:00:16;;;;;;;6.43;4.20;;;1.30;99.90;;;;;;5072405;28;20714;-62
2021/04/07 04:02:43;;;;;;;6.63;4.00;;;1.30;99.90;;;;;;5072483;28;20241;-62
2021/04/07 04:05:10;;;;;;;4.20;3.60;;;1.20;99.90;;;;;;5072761;28;20303;-63
2021/04/07 04:07:37;;;;;;;5.10;4.07;;;1.20;99.90;;;;;;5072333;28;20203;-63
2021/04/07 04:10:05;;;;;;;8.97;4.43;;;1.20;99.90;;;;;;5072691;28;20291;-63
2021/04/07 04:12:32;;;;;;;4.40;3.80;;;1.20;99.90;;;;;;5072119;28;20272;-63
2021/04/07 04:15:00;;;;;;;6.13;4.43;;;1.10;99.90;;;;;;5072456;28;20294;-62
2021/04/07 04:17:27;;;;;;;4.17;3.77;;;1.20;99.90;;;;;;5072277;28;20201;-62
2021/04/07 04:19:54;;;;;;;6.83;4.07;;;1.20;99.90;;;;;;5072711;28;20209;-62
2021/04/07 04:22:20;;;;;;;4.77;4.07;;;1.20;99.90;;;;;;5072286;28;20255;-62
2021/04/07 04:24:47;;;;;;;6.80;4.40;;;1.20;99.90;;;;;;5072528;28;20672;-62
2021/04/07 04:27:14;;;;;;;5.97;4.40;;;1.30;99.90;;;;;;5076277;28;20285;-62
2021/04/07 04:29:41;;;;;;;5.70;4.53;;;1.30;99.90;;;;;;5076289;28;20203;-63
2021/04/07 04:32:09;;;;;;;6.77;4.23;;;1.30;99.90;;;;;;5076395;28;20571;-62
2021/04/07 04:34:36;;;;;;;6.10;5.00;;;1.30;99.90;;;;;;5076186;28;20875;-63
2021/04/07 04:37:03;;;;;;;5.53;4.83;;;1.30;99.90;;;;;;5076425;28;20548;-62
2021/04/07 04:39:29;;;;;;;5.93;4.47;;;1.30;99.90;;;;;;5076276;28;20308;-62
2021/04/07 04:41:57;;;;;;;6.90;4.83;;;1.30;99.90;;;;;;5077219;28;22031;-63
2021/04/07 04:44:23;;;;;;;7.77;4.70;;;1.40;99.90;;;;;;5085759;28;20297;-62
2021/04/07 04:46:50;;;;;;;5.50;4.53;;;1.40;99.90;;;;;;5076169;28;20296;-62
2021/04/07 04:49:18;;;;;;;6.53;5.00;;;1.30;99.90;;;;;;5076123;28;20196;-62
2021/04/07 04:51:45;;;;;;;5.87;5.03;;;1.30;99.90;;;;;;5075937;28;20296;-63
2021/04/07 04:54:12;;;;;;;6.97;4.47;;;1.30;99.90;;;;;;5076108;28;20225;-63
2021/04/07 04:56:39;;;;;;;6.73;4.73;;;1.30;99.90;;;;;;5076303;28;20253;-62
2021/04/07 04:59:07;;;;;;;7.50;4.43;;;1.30;99.90;;;;;;5075758;28;20220;-62
2021/04/07 05:01:34;;;;;;;6.40;5.03;;;1.30;99.90;;;;;;5075908;28;20287;-63
2021/04/07 05:04:05;;;;;;;7.37;4.60;;;1.40;99.90;;;;;;5075801;28;20193;-63
2021/04/07 05:06:33;;;;;;;8.87;4.80;;;1.40;99.90;;;;;;5075679;28;20291;-63
2021/04/07 05:09:00;;;;;;;6.20;4.33;;;1.50;99.90;;;;;;5075728;28;20196;-62
2021/04/07 05:11:27;;;;;;;7.17;4.87;;;1.50;99.90;;;;;;5075707;28;20608;-63
2021/04/07 05:13:54;;;;;;;6.70;5.63;;;1.50;99.90;;;;;;5075153;28;20204;-62
2021/04/07 05:16:21;;;;;;;7.67;6.07;;;1.60;99.90;;;;;;5075639;28;20206;-62
2021/04/07 05:18:48;;;;;;;6.90;5.53;;;1.60;99.90;;;;;;5075068;28;20315;-62
2021/04/07 05:21:15;;;;;;;5.73;4.80;;;1.70;99.90;;;;;;5075560;28;20287;-63
2021/04/07 05:23:43;;;;;;;5.33;4.53;;;1.70;99.90;;;;;;5075166;28;20671;-62
2021/04/07 05:26:10;;;;;;;4.77;4.17;;;1.60;99.90;;;;;;5075204;28;20657;-63
2021/04/07 05:28:36;;;;;;;4.77;4.07;;;1.60;99.90;;;;;;5084483;28;20195;-63
2021/04/07 05:31:04;;;;;;;4.77;4.00;;;1.70;99.90;;;;;;5076332;28;20216;-63
2021/04/07 05:33:33;;;;;;;7.73;4.43;;;1.60;99.90;;;;;;5075047;28;20200;-63
2021/04/07 05:36:02;;;;;;;6.00;4.30;;;1.70;99.90;;;;;;5075059;28;20239;-62
2021/04/07 05:38:30;;;;;;;5.93;3.73;;;1.70;99.90;;;;;;5074364;28;20217;-61
2021/04/07 05:40:58;;;;;;;4.20;3.57;;;1.80;99.90;;;;;;5077169;28;20231;-63
2021/04/07 05:43:26;;;;;;;5.30;3.90;;;1.90;99.90;;;;;;5083820;28;20295;-62
2021/04/07 05:45:54;;;;;;;4.23;3.73;;;2.00;99.90;;;;;;5076023;28;20227;-62
2021/04/07 05:48:21;;;;;;;4.57;3.67;;;2.00;99.90;;;;;;5091983;28;20201;-63
2021/04/07 05:50:50;;;;;;;4.67;3.27;;;2.10;99.90;;;;;;5093726;28;20206;-62
2021/04/07 05:53:17;;;;;;;5.60;3.47;;;2.00;99.90;;;;;;5093765;28;20202;-62
2021/04/07 05:55:45;;;;;;;4.80;3.37;;;2.00;99.90;;;;;;5090833;28;20577;-62
2021/04/07 05:58:14;;;;;;;4.03;3.17;;;2.00;99.90;;;;;;5073343;28;20259;-61
2021/04/07 06:00:42;;;;;;;5.23;2.90;;;2.10;99.90;;;;;;5073121;28;20233;-62
2021/04/07 06:03:10;;;;;;;4.17;3.10;;;2.20;99.90;;;;;;5073053;28;20296;-62
2021/04/07 06:05:38;;;;;;;4.47;3.03;;;2.20;99.90;;;;;;5073956;28;20223;-61
2021/04/07 06:08:06;;;;;;;3.17;2.63;;;2.20;99.90;;;;;;5075230;28;20316;-62
2021/04/07 06:10:36;;;;;;;4.20;3.10;;;2.30;99.90;;;;;;5084316;28;20568;-62
2021/04/07 06:13:03;;;;;;;4.73;4.00;;;2.40;99.90;;;;;;5082545;28;20293;-62
2021/04/07 06:15:32;;;;;;;2.73;2.53;;;2.60;99.90;;;;;;5085936;28;20232;-62
2021/04/07 06:18:01;;;;;;;5.03;2.63;;;2.70;99.90;;;;;;5075479;28;20258;-63
2021/04/07 06:20:30;;;;;;;3.67;2.50;;;2.90;99.90;;;;;;5084760;28;20231;-62
2021/04/07 06:22:58;;;;;;;2.70;2.50;;;3.00;99.90;;;;;;5075774;28;20237;-62
2021/04/07 06:25:25;;;;;;;3.90;2.57;;;3.10;99.90;;;;;;5074537;28;20198;-62
2021/04/07 06:27:53;;;;;;;4.90;2.63;;;3.10;99.90;;;;;;5087008;28;20326;-63
2021/04/07 06:30:24;;;;;;;4.23;2.67;;;3.10;99.90;;;;;;5094445;28;20235;-62
2021/04/07 06:32:52;;;;;;;5.20;2.77;;;3.10;99.90;;;;;;5092917;28;20703;-63
2021/04/07 06:35:19;;;;;;;5.50;2.63;;;3.10;99.90;;;;;;5085777;28;20295;-63
2021/04/07 06:37:45;;;;;;;3.33;2.50;;;3.20;99.90;;;;;;5088529;28;20196;-63
2021/04/07 06:40:12;;;;;;;4.17;2.70;;;3.30;99.90;;;;;;5094321;28;20199;-63
2021/04/07 06:42:40;;;;;;;4.43;2.27;;;3.30;99.90;;;;;;5088346;28;20193;-64
2021/04/07 06:45:08;;;;;;;4.13;2.40;;;3.30;99.90;;;;;;5084217;28;20242;-64
2021/04/07 06:47:35;;;;;;;6.40;2.83;;;3.30;99.90;;;;;;5089872;28;20207;-64
2021/04/07 06:50:03;;;;;;;4.93;2.47;;;3.30;99.90;;;;;;5075339;28;20949;-64
2021/04/07 06:52:31;;;;;;;6.83;2.70;;;3.30;99.90;;;;;;5085946;28;20232;-63
2021/04/07 06:54:58;;;;;;;3.67;2.60;;;3.50;99.90;;;;;;5081304;28;20243;-64
2021/04/07 06:57:25;;;;;;;5.00;2.93;;;3.50;99.90;;;;;;5081839;28;20278;-60
2021/04/07 06:59:52;;;;;;;4.50;2.70;;;3.60;99.90;;;;;;5086979;28;20774;-61
2021/04/07 07:02:19;;;;;;;5.57;2.63;;;3.60;99.90;;;;;;5090769;28;20205;-61
2021/04/07 07:04:46;;;;;;;3.83;2.70;;;3.70;99.90;;;;;;5090394;28;20648;-62
2021/04/07 07:07:15;;;;;;;7.90;2.77;;;3.80;99.90;;;;;;5089408;28;20210;-63
2021/04/07 07:09:52;;;;;;;6.33;3.73;;;3.80;99.90;;;;;;5090070;28;20740;-63
2021/04/07 07:12:20;;;;;;;5.03;2.40;;;3.90;99.90;;;;;;5090713;28;20200;-63
2021/04/07 07:14:48;;;;;;;6.27;2.77;;;4.00;99.90;;;;;;5090016;28;20188;-63
2021/04/07 07:17:26;;;;;;;9.57;2.97;;;4.10;99.90;;;;;;5090218;28;20778;-64
2021/04/07 07:19:53;;;;;;;5.20;3.00;;;4.10;99.90;;;;;;5091134;28;20289;-64
2021/04/07 07:22:22;;;;;;;4.40;2.43;;;4.20;99.90;;;;;;5096983;28;20225;-63
2021/04/07 07:24:54;;;;;;;5.03;2.53;;;4.30;99.90;;;;;;5098134;28;20204;-66
2021/04/07 07:27:34;;;;;;;3.67;2.67;;;4.40;99.90;;;;;;5092239;28;20279;-62
2021/04/07 07:30:01;;;;;;;2.93;2.13;;;4.60;99.90;;;;;;5090701;28;20192;-63
2021/04/07 07:32:37;;;;;;;5.43;1.90;;;4.60;99.90;;;;;;5090659;28;20687;-64
2021/04/07 07:35:09;;;;;;;4.20;1.93;;;4.60;99.90;;;;;;5090271;28;20204;-64
2021/04/07 07:37:37;;;;;;;5.27;2.03;;;4.50;99.90;;;;;;5090434;28;20208;-64
2021/04/07 07:40:07;;;;;;;4.80;2.23;;;4.60;99.90;;;;;;5089768;28;20217;-63
2021/04/07 07:42:34;;;;;;;5.77;2.20;;;4.40;99.90;;;;;;5089578;28;20616;-62
2021/04/07 07:45:01;;;;;;;4.27;1.80;;;4.30;99.90;;;;;;5089350;28;20862;-63
2021/04/07 07:47:31;;;;;;;7.37;1.80;;;4.10;99.90;;;;;;5089989;28;20200;-63
2021/04/07 07:50:00;;;;;;;4.93;1.80;;;4.20;99.90;;;;;;5089678;28;20200;-67
2021/04/07 07:52:32;;;;;;;3.23;2.13;;;4.30;99.90;;;;;;5089975;28;20375;-68
2021/04/07 07:55:11;;;;;;;2.97;1.63;;;4.40;99.90;;;;;;5089926;28;20284;-67
2021/04/07 07:57:38;;;;;;;2.50;1.40;;;4.50;99.90;;;;;;5083314;28;20676;-63
2021/04/07 08:00:09;;;;;;;3.83;1.77;;;4.50;99.90;;;;;;5079815;28;20230;-64
2021/04/07 08:02:38;;;;;;;6.30;1.77;;;4.70;99.90;;;;;;5087752;28;20288;-63
2021/04/07 08:05:08;;;;;;;4.93;1.77;;;4.80;99.90;;;;;;5083026;28;20322;-63
2021/04/07 08:07:35;;;;;;;6.40;1.63;;;5.00;99.90;;;;;;5069461;28;20281;-66
2021/04/07 08:10:03;;;;;;;5.30;1.70;;;5.00;99.90;;;;;;5069568;28;20194;-66
2021/04/07 08:12:30;;;;;;;4.90;2.10;;;4.90;99.90;;;;;;5069628;28;20208;-61
2021/04/07 08:14:58;;;;;;;5.17;2.10;;;4.70;99.90;;;;;;5069278;28;20281;-65
2021/04/07 08:17:27;;;;;;;4.57;1.60;;;4.60;99.90;;;;;;5069301;28;20664;-65
2021/04/07 08:19:54;;;;;;;4.43;1.87;;;4.70;99.90;;;;;;5068883;28;20686;-66
2021/04/07 08:22:21;;;;;;;4.03;1.77;;;4.90;99.90;;;;;;5071189;28;20747;-66
2021/04/07 08:24:51;;;;;;;2.77;1.60;;;5.20;99.90;;;;;;5089280;28;20628;-67
2021/04/07 08:27:21;;;;;;;5.23;2.13;;;5.50;99.90;;;;;;5089214;28;20277;-66
2021/04/07 08:29:48;;;;;;;2.47;2.00;;;5.60;99.90;;;;;;5089570;28;20221;-64
2021/04/07 08:32:18;;;;;;;4.67;1.70;;;5.60;99.90;;;;;;5089405;28;20291;-64
2021/04/07 08:34:46;;;;;;;5.93;1.97;;;5.50;99.90;;;;;;5088876;28;20648;-65
2021/04/07 08:37:24;;;;;;;5.73;2.20;;;5.40;99.90;;;;;;5089201;28;20883;-62
2021/04/07 08:39:51;;;;;;;6.97;2.03;;;5.20;99.90;;;;;;5088806;28;20213;-70
2021/04/07 08:42:19;;;;;;;3.00;1.70;;;5.00;99.90;;;;;;5088993;28;20205;-65
2021/04/07 08:44:47;;;;;;;3.70;1.40;;;5.00;99.90;;;;;;5089062;28;20282;-64
2021/04/07 08:47:25;;;;;;;4.87;1.63;;;4.90;99.90;;;;;;5088713;28;20244;-67
2021/04/07 08:50:02;;;;;;;3.70;1.60;;;4.80;99.90;;;;;;5088854;28;20188;-65
2021/04/07 08:52:29;;;;;;;3.63;1.77;;;4.80;99.90;;;;;;5089334;28;20186;-65
2021/04/07 08:54:58;;;;;;;4.63;1.70;;;4.90;99.90;;;;;;5089437;28;20611;-65
2021/04/07 08:57:29;;;;;;;4.47;1.90;;;5.10;99.90;;;;;;5088829;28;20598;-63
2021/04/07 08:59:57;;;;;;;5.27;1.90;;;5.30;99.90;;;;;;5088989;28;20206;-64
2021/04/07 09:02:25;;;;;;;4.50;1.70;;;5.50;99.90;;;;;;5088847;28;20237;-63
2021/04/07 09:05:04;;;;;;;6.17;1.87;;;5.50;99.90;;;;;;5088966;28;20277;-62
2021/04/07 09:07:41;;;;;;;3.63;2.00;;;5.70;99.90;;;;;;5089083;28;20307;-65
2021/04/07 09:10:13;;;;;;;7.53;2.30;;;5.60;99.90;;;;;;5089103;28;20257;-67
2021/04/07 09:12:45;;;;;;;5.03;1.70;;;5.20;99.90;;;;;;5090544;28;20283;-66
2021/04/07 09:15:16;;;;;;;4.97;1.80;;;4.90;99.90;;;;;;5092761;28;20322;-65
2021/04/07 09:17:45;;;;;;;5.27;1.70;;;5.10;99.90;;;;;;5092843;28;20218;-62
2021/04/07 09:20:33;;;;;;;5.40;1.73;;;5.10;99.90;;;;;;5092626;28;20617;-61
2021/04/07 09:23:08;;;;;;;3.73;1.60;;;5.20;99.90;;;;;;5092878;28;20239;-62
2021/04/07 09:25:36;;;;;;;3.17;2.03;;;5.30;99.90;;;;;;5092547;28;20267;-62
2021/04/07 09:28:07;;;;;;;5.07;1.80;;;5.40;99.90;;;;;;5091819;28;20234;-63
2021/04/07 09:30:46;;;;;;;2.73;1.23;;;5.60;99.90;;;;;;5091643;28;20657;-63
2021/04/07 09:33:19;;;;;;;4.37;1.90;;;5.80;99.90;;;;;;5091781;28;20185;-63
2021/04/07 09:35:57;;;;;;;3.27;1.80;;;5.80;99.90;;;;;;5091475;28;20202;-63
2021/04/07 09:38:26;;;;;;;4.13;1.87;;;5.80;99.90;;;;;;5092183;28;20185;-64
2021/04/07 09:41:04;;;;;;;6.47;2.40;;;5.70;99.90;;;;;;5091707;28;20599;-62
2021/04/07 09:43:32;;;;;;;3.87;1.90;;;5.70;99.90;;;;;;5092234;28;20247;-71
2021/04/07 09:45:59;;;;;;;2.53;1.73;;;5.40;99.90;;;;;;5092175;28;20216;-68
2021/04/07 09:48:41;;;;;;;3.80;2.20;;;5.20;99.90;;;;;;5092163;28;20235;-69
2021/04/07 09:51:24;;;;;;;5.30;2.10;;;5.20;99.90;;;;;;5090927;28;20180;-62
2021/04/07 09:54:19;;;;;;;4.53;2.43;;;5.40;99.90;;;;;;5086013;28;20445;-62
2021/04/07 09:57:08;;;;;;;5.80;2.30;;;5.60;99.90;;;;;;5076021;28;20194;-62
2021/04/07 09:59:39;;;;;;;5.33;2.67;;;6.00;99.90;;;;;;5078982;28;20570;-62
2021/04/07 10:02:08;;;;;;;3.43;2.50;;;6.30;99.90;;;;;;5080470;28;20285;-63
2021/04/07 10:04:37;;;;;;;3.90;2.50;;;6.30;99.90;;;;;;5071404;28;20294;-62
2021/04/07 10:07:11;;;;;;;4.17;2.70;;;6.30;99.90;;;;;;5071368;28;20217;-62
2021/04/07 10:09:42;;;;;;;3.53;2.30;;;6.20;99.90;;;;;;5071172;28;20658;-62
2021/04/07 10:12:10;;;;;;;3.93;2.70;;;5.90;99.90;;;;;;5071481;28;20260;-61
2021/04/07 10:14:37;;;;;;;5.37;2.70;;;5.60;99.90;;;;;;5070916;28;20240;-62
2021/04/07 10:17:12;;;;;;;4.40;2.30;;;5.40;99.90;;;;;;5071287;28;20545;-61
2021/04/07 10:19:39;;;;;;;4.87;2.63;;;5.40;99.90;;;;;;5070797;28;20275;-62
2021/04/07 10:22:14;;;;;;;4.07;2.30;;;5.70;99.90;;;;;;5071043;28;20678;-61
2021/04/07 10:24:41;;;;;;;6.23;2.50;;;6.20;99.90;;;;;;5071138;28;20277;-62
2021/04/07 10:27:08;;;;;;;8.30;2.70;;;6.40;99.90;;;;;;5075633;28;20250;-61
2021/04/07 10:29:38;;;;;;;3.40;2.43;;;6.60;99.90;;;;;;5090907;28;20289;-63
2021/04/07 10:32:13;;;;;;;4.53;2.30;;;6.80;99.90;;;;;;5080408;28;20297;-62
2021/04/07 10:34:39;;;;;;;3.90;2.37;;;6.80;99.90;;;;;;5081817;28;20653;-63
2021/04/07 10:37:06;;;;;;;5.30;2.70;;;6.70;99.90;;;;;;5076708;28;20670;-62
2021/04/07 10:39:38;;;;;;;6.33;2.40;;;6.60;99.90;;;;;;5079242;28;20235;-59
2021/04/07 10:42:10;;;;;;;6.07;2.70;;;6.30;99.90;;;;;;5070811;28;20248;-59
2021/04/07 10:44:38;;;;;;;6.30;3.20;;;6.10;99.90;;;;;;5070405;28;20653;-61
2021/04/07 10:47:14;;;;;;;3.50;2.30;;;6.20;99.90;;;;;;5070591;28;20242;-62
2021/04/07 10:49:52;;;;;;;3.50;2.10;;;6.60;99.90;;;;;;5070107;28;20642;-62
2021/04/07 10:52:29;;;;;;;5.17;2.97;;;7.10;99.90;;;;;;5070430;28;20256;-64
2021/04/07 10:54:57;;;;;;;3.40;2.57;;;7.20;99.90;;;;;;5070937;28;20275;-63
2021/04/07 10:57:31;;;;;;;6.50;2.40;;;7.30;99.90;;;;;;5081568;28;20200;-65
2021/04/07 11:00:00;;;;;;;4.87;2.50;;;7.00;99.90;;;;;;5070371;28;20207;-59
2021/04/07 11:02:26;;;;;;;4.53;2.70;;;6.60;99.90;;;;;;5070064;28;20769;-60
2021/04/07 11:04:54;;;;;;;7.73;2.90;;;6.40;99.90;;;;;;5070260;28;20219;-60
2021/04/07 11:07:21;;;;;;;4.67;2.90;;;6.40;99.90;;;;;;5069950;28;20212;-61
2021/04/07 11:09:49;;;;;;;4.97;2.77;;;6.40;99.90;;;;;;5070282;28;20605;-64
2021/04/07 11:12:21;;;;;;;5.67;2.70;;;6.80;99.90;;;;;;5081011;28;20302;-62
2021/04/07 11:14:51;;;;;;;4.20;2.60;;;7.10;99.90;;;;;;5073359;28;20282;-62
2021/04/07 11:17:19;;;;;;;7.17;3.53;;;6.80;99.90;;;;;;5078595;28;20224;-62
2021/04/07 11:19:47;;;;;;;3.53;2.50;;;6.70;99.90;;;;;;5089774;28;20678;-63
2021/04/07 11:22:14;;;;;;;4.03;2.80;;;6.70;99.90;;;;;;5090184;28;20210;-63
2021/04/07 11:24:41;;;;;;;3.90;2.77;;;6.40;99.90;;;;;;5090326;28;20338;-64
2021/04/07 11:27:09;;;;;;;3.23;2.40;;;6.20;99.90;;;;;;5089958;28;20269;-63
2021/04/07 11:29:36;;;;;;;3.40;2.40;;;6.20;99.90;;;;;;5089492;28;20235;-63
2021/04/07 11:32:05;;;;;;;3.37;2.40;;;6.30;99.90;;;;;;5090634;28;20221;-63
2021/04/07 11:34:57;;;;;;;2.70;2.37;;;6.40;99.90;;;;;;5095005;28;21037;-63
2021/04/07 11:37:32;;;;;;;3.90;2.10;;;6.50;99.90;;;;;;5079681;28;20201;-62
2021/04/07 11:40:36;;;;;;;3.57;2.03;;;6.60;99.90;;;;;;5069992;28;20225;-63
2021/04/07 11:43:07;;;;;;;2.60;2.00;;;7.10;99.90;;;;;;5069583;28;20279;-62
2021/04/07 11:45:34;;;;;;;4.03;2.23;;;7.40;99.90;;;;;;5069192;28;20281;-62
2021/04/07 11:48:01;;;;;;;3.00;2.30;;;7.50;99.90;;;;;;5069888;28;20215;-62
2021/04/07 11:50:29;;;;;;;4.23;2.20;;;7.50;99.90;;;;;;5069045;28;20256;-63
2021/04/07 11:52:56;;;;;;;4.50;2.60;;;7.50;99.90;;;;;;5069212;28;20280;-63
2021/04/07 11:55:23;;;;;;;3.53;2.67;;;7.50;99.90;;;;;;5070236;28;20289;-62
2021/04/07 11:57:50;;;;;;;5.20;2.80;;;7.60;99.90;;;;;;5069458;28;20686;-62
2021/04/07 12:00:17;;;;;;;4.13;2.37;;;7.70;99.90;;;;;;5069403;28;20306;-62
2021/04/07 12:02:46;;;;;;;2.97;2.50;;;7.50;99.90;;;;;;5069560;28;20214;-61
2021/04/07 12:05:15;;;;;;;3.03;2.40;;;7.40;99.90;;;;;;5069560;28;20209;-63
2021/04/07 12:07:42;;;;;;;4.07;2.07;;;7.50;99.90;;;;;;5069008;28;20215;-62
2021/04/07 12:10:10;;;;;;;4.23;1.93;;;7.70;99.90;;;;;;5069091;28;20629;-62
2021/04/07 12:12:37;;;;;;;2.83;2.00;;;7.60;99.90;;;;;;5069192;28;20214;-62
2021/04/07 12:15:05;;;;;;;2.87;1.80;;;7.60;99.90;;;;;;5068906;28;20204;-62
2021/04/07 12:17:53;;;;;;;3.03;1.57;;;7.60;99.90;;;;;;5069516;28;20317;-61
2021/04/07 12:20:20;;;;;;;2.80;1.80;;;7.60;99.90;;;;;;5069273;28;20563;-61
2021/04/07 12:22:49;;;;;;;2.57;1.70;;;7.80;99.90;;;;;;5072969;28;20220;-61
2021/04/07 12:25:16;;;;;;;2.60;1.70;;;7.90;99.90;;;;;;5076010;28;20211;-61
2021/04/07 12:27:43;;;;;;;4.03;1.80;;;7.90;99.90;;;;;;5068547;28;20682;-60
2021/04/07 12:30:11;;;;;;;3.90;1.83;;;7.90;99.90;;;;;;5069137;28;20199;-61
2021/04/07 12:32:38;;;;;;;2.10;1.90;;;7.90;99.90;;;;;;5068941;28;20577;-63
2021/04/07 12:35:10;;;;;;;3.53;3.23;;;7.90;99.90;;;;;;5068865;28;20690;-59
2021/04/07 12:37:40;;;;;;;3.00;2.60;;;7.90;99.90;;;;;;5069075;28;20234;-62
2021/04/07 12:40:08;;;;;;;2.77;2.33;;;8.00;99.90;;;;;;5069130;28;20231;-62
2021/04/07 12:42:35;;;;;;;3.40;2.13;;;8.00;99.90;;;;;;5068851;28;20214;-62
2021/04/07 12:45:06;;;;;;;3.17;2.40;;;8.10;99.90;;;;;;5068436;28;20227;-62
2021/04/07 12:47:33;;;;;;;3.90;2.57;;;8.00;99.90;;;;;;5069971;28;20276;-63
2021/04/07 12:50:00;;;;;;;2.30;2.10;;;7.90;99.90;;;;;;5072050;28;20226;-62
2021/04/07 12:52:27;;;;;;;4.40;2.30;;;7.90;99.90;;;;;;5072793;28;20337;-61
2021/04/07 12:54:54;;;;;;;2.97;2.07;;;7.60;99.90;;;;;;5084258;28;20197;-62
2021/04/07 12:57:22;;;;;;;3.80;2.20;;;7.50;99.90;;;;;;5072952;28;20227;-64
2021/04/07 12:59:52;;;;;;;4.03;2.40;;;7.30;99.90;;;;;;5074701;28;20226;-63
2021/04/07 13:02:19;;;;;;;3.77;2.57;;;7.20;99.90;;;;;;5082511;28;20244;-65
2021/04/07 13:04:46;;;;;;;3.83;2.37;;;7.30;99.90;;;;;;5072824;28;20217;-62
2021/04/07 13:07:13;;;;;;;2.77;2.27;;;7.50;99.90;;;;;;5073209;28;20854;-65